Time;durP1;ratioP1;P1;durP2;ratioP2;P2;SDS_P1;SDS_P2;PMS_P1;PMS_P2;Temp;Humidity;BMP_temperature;BMP_pressure;BME280_temperature;BME280_humidity;BME280_pressure;Samples;Min_cycle;Max_cycle;Signal;HPM_P1;HPM_P2
2021/12/06 00:00:29;;;;;;;20.88;11.30;;;2.80;99.90;;;;;;5078031;28;20095;-79
2021/12/06 00:02:59;;;;;;;22.05;11.35;;;2.80;99.90;;;;;;5077518;28;20452;-79
2021/12/06 00:05:26;;;;;;;23.42;12.55;;;3.20;99.90;;;;;;5077016;28;20056;-79
2021/12/06 00:07:52;;;;;;;22.80;11.50;;;2.80;99.90;;;;;;5076069;28;20055;-80
2021/12/06 00:10:18;;;;;;;19.92;11.15;;;2.70;99.90;;;;;;5077064;28;20055;-79
2021/12/06 00:12:44;;;;;;;21.08;11.20;;;2.80;99.90;;;;;;5075647;28;20418;-79
2021/12/06 00:15:11;;;;;;;20.40;10.43;;;2.80;99.90;;;;;;5076886;28;20049;-79
2021/12/06 00:17:37;;;;;;;21.48;10.80;;;2.80;99.90;;;;;;5076663;28;20516;-78
2021/12/06 00:20:06;;;;;;;21.17;11.35;;;2.80;99.90;;;;;;5076705;28;20135;-79
2021/12/06 00:22:32;;;;;;;25.35;11.50;;;2.80;99.90;;;;;;5077332;28;20093;-79
2021/12/06 00:24:58;;;;;;;27.38;13.57;;;3.80;99.90;;;;;;5077487;28;20051;-79
2021/12/06 00:27:25;;;;;;;22.80;10.60;;;2.90;99.90;;;;;;5076629;28;20056;-79
2021/12/06 00:29:51;;;;;;;24.10;13.48;;;2.90;99.90;;;;;;5076650;28;20048;-79
2021/12/06 00:32:17;;;;;;;27.65;13.35;;;2.90;99.90;;;;;;5075659;28;20049;-79
2021/12/06 00:34:43;;;;;;;27.85;13.35;;;2.90;99.90;;;;;;5077335;28;20354;-80
2021/12/06 00:37:20;;;;;;;28.15;14.32;;;2.80;99.90;;;;;;5076342;28;20040;-79
2021/12/06 00:39:49;;;;;;;28.90;13.85;;;2.80;99.90;;;;;;5076512;28;20091;-79
2021/12/06 00:42:15;;;;;;;30.63;15.23;;;2.90;99.90;;;;;;5075898;28;20048;-79
2021/12/06 00:44:41;;;;;;;32.10;16.17;;;2.80;99.90;;;;;;5076309;28;20501;-79
2021/12/06 00:47:07;;;;;;;31.17;14.27;;;2.80;99.90;;;;;;5076854;28;20044;-79
2021/12/06 00:49:33;;;;;;;27.58;13.52;;;2.70;99.90;;;;;;5076221;28;20044;-79
2021/12/06 00:51:59;;;;;;;30.83;15.02;;;2.80;99.90;;;;;;5075708;28;20048;-79
2021/12/06 00:54:24;;;;;;;28.38;15.68;;;2.90;99.90;;;;;;5076163;28;20504;-79
2021/12/06 00:56:50;;;;;;;32.47;14.98;;;2.80;99.90;;;;;;5076207;28;20049;-80
2021/12/06 00:59:16;;;;;;;27.88;13.93;;;2.80;99.90;;;;;;5075714;28;20469;-79
2021/12/06 01:01:42;;;;;;;29.75;14.75;;;2.70;99.90;;;;;;5073413;28;20040;-79
2021/12/06 01:04:07;;;;;;;32.88;14.93;;;2.80;99.90;;;;;;5074750;28;20595;-79
2021/12/06 01:06:33;;;;;;;30.40;14.40;;;2.70;99.90;;;;;;5073883;28;20174;-79
2021/12/06 01:08:59;;;;;;;28.15;14.52;;;2.90;99.90;;;;;;5074792;28;20090;-80
2021/12/06 01:11:25;;;;;;;30.25;14.07;;;2.80;99.90;;;;;;5074972;28;20052;-79
2021/12/06 01:13:51;;;;;;;30.65;14.63;;;2.80;99.90;;;;;;5074743;28;20045;-79
2021/12/06 01:16:17;;;;;;;26.65;13.35;;;2.80;99.90;;;;;;5073750;28;20106;-79
2021/12/06 01:18:43;;;;;;;27.90;13.05;;;3.00;99.90;;;;;;5075218;28;20052;-79
2021/12/06 01:24:10;;;;;;;30.95;15.05;;;2.80;99.90;;;;;;5074577;28;20059;-79
2021/12/06 01:32:03;;;;;;;28.40;13.55;;;2.80;99.90;;;;;;5052086;28;20048;-79
2021/12/06 01:39:58;;;;;;;31.55;14.93;;;2.80;99.90;;;;;;5074350;28;20053;-79
2021/12/06 01:42:24;;;;;;;29.42;14.00;;;2.90;99.90;;;;;;5073362;28;20131;-79
2021/12/06 01:44:55;;;;;;;32.92;14.80;;;2.90;99.90;;;;;;5074285;28;20036;-79
2021/12/06 01:47:25;;;;;;;34.20;15.15;;;2.90;99.90;;;;;;5074273;28;20055;-79
2021/12/06 01:49:58;;;;;;;33.83;15.05;;;2.80;99.90;;;;;;5073209;28;20052;-79
2021/12/06 01:52:28;;;;;;;32.28;15.55;;;2.80;99.90;;;;;;5074327;28;20048;-79
2021/12/06 01:54:55;;;;;;;32.35;15.38;;;2.80;99.90;;;;;;5074099;28;20052;-79
2021/12/06 01:57:23;;;;;;;34.05;15.52;;;2.80;99.90;;;;;;5074610;28;20052;-79
2021/12/06 02:00:39;;;;;;;35.47;16.45;;;3.40;99.90;;;;;;5103678;27;20211;-68
2021/12/06 02:03:06;;;;;;;32.22;14.30;;;2.80;99.90;;;;;;5098910;28;20054;-69
2021/12/06 02:05:34;;;;;;;34.60;16.13;;;2.80;99.90;;;;;;5107139;28;20504;-69
2021/12/06 02:08:00;;;;;;;34.38;15.32;;;2.80;99.90;;;;;;5098279;28;20046;-69
2021/12/06 02:10:27;;;;;;;32.95;14.90;;;2.80;99.90;;;;;;5080726;28;20044;-69
2021/12/06 02:12:54;;;;;;;34.22;16.63;;;2.80;99.90;;;;;;5081482;28;20090;-69
2021/12/06 02:18:05;;;;;;;31.92;15.48;;;2.80;99.90;;;;;;5099099;28;20044;-69
2021/12/06 02:20:36;;;;;;;29.23;15.30;;;2.80;99.90;;;;;;5086178;28;20055;-69
2021/12/06 02:23:02;;;;;;;34.83;15.15;;;2.90;99.90;;;;;;5079270;28;20348;-69
2021/12/06 02:25:28;;;;;;;34.47;15.35;;;2.90;99.90;;;;;;5080743;28;20052;-69
2021/12/06 02:27:55;;;;;;;36.17;15.98;;;2.90;99.90;;;;;;5095988;28;20048;-69
2021/12/06 02:30:21;;;;;;;38.83;16.98;;;2.80;99.90;;;;;;5097513;28;20045;-69
2021/12/06 02:32:49;;;;;;;41.50;17.50;;;2.80;99.90;;;;;;5073380;28;20450;-69
2021/12/06 02:35:19;;;;;;;36.10;16.38;;;2.80;99.90;;;;;;5079754;28;20125;-69
2021/12/06 02:37:46;;;;;;;37.20;16.92;;;2.80;99.90;;;;;;5080852;28;20045;-69
2021/12/06 02:40:20;;;;;;;40.97;16.55;;;2.80;99.90;;;;;;5079112;28;20048;-68
2021/12/06 02:42:47;;;;;;;43.58;19.83;;;2.90;99.90;;;;;;5096762;28;20036;-69
2021/12/06 02:45:15;;;;;;;40.72;17.85;;;2.80;99.90;;;;;;5094993;28;20052;-69
2021/12/06 02:47:41;;;;;;;41.33;18.60;;;2.80;99.90;;;;;;5122626;28;20131;-69
2021/12/06 02:50:10;;;;;;;39.33;17.35;;;3.00;99.90;;;;;;5096086;28;20059;-69
2021/12/06 02:52:38;;;;;;;39.17;16.65;;;2.90;99.90;;;;;;5081532;28;20053;-69
2021/12/06 02:55:24;;;;;;;44.67;18.00;;;2.90;99.90;;;;;;5076794;28;20040;-69
2021/12/06 02:57:55;;;;;;;42.33;18.45;;;2.90;99.90;;;;;;5076634;28;20036;-69
2021/12/06 03:00:21;;;;;;;43.00;18.02;;;2.80;99.90;;;;;;5060581;28;20064;-69
2021/12/06 03:02:47;;;;;;;40.08;17.67;;;2.80;99.90;;;;;;5058885;28;20061;-69
2021/12/06 03:05:13;;;;;;;36.13;17.63;;;2.80;99.90;;;;;;5076035;28;20049;-69
2021/12/06 03:07:39;;;;;;;41.78;17.42;;;3.00;99.90;;;;;;5076261;28;20045;-69
2021/12/06 03:10:09;;;;;;;39.47;16.73;;;2.90;99.90;;;;;;5071474;28;20571;-69
2021/12/06 03:12:35;;;;;;;36.35;16.10;;;2.90;99.90;;;;;;5046566;28;20096;-69
2021/12/06 03:15:05;;;;;;;38.60;16.63;;;2.90;99.90;;;;;;5061265;28;20075;-69
2021/12/06 03:17:32;;;;;;;40.42;16.48;;;2.80;99.90;;;;;;5046762;28;20063;-68
2021/12/06 03:20:00;;;;;;;37.20;16.20;;;2.90;99.90;;;;;;5061892;28;20052;-69
2021/12/06 03:22:26;;;;;;;40.15;19.35;;;2.80;99.90;;;;;;5061693;28;20668;-69
2021/12/06 03:24:53;;;;;;;39.60;17.98;;;2.90;99.90;;;;;;5045978;28;20424;-69
2021/12/06 03:27:19;;;;;;;37.75;16.85;;;2.90;99.90;;;;;;5061506;28;20041;-69
2021/12/06 03:29:46;;;;;;;37.53;17.98;;;2.80;99.90;;;;;;5062906;28;20041;-69
2021/12/06 03:32:12;;;;;;;43.60;17.52;;;3.00;99.90;;;;;;5061376;28;20059;-69
2021/12/06 03:34:39;;;;;;;40.40;18.42;;;2.90;99.90;;;;;;5062725;28;20037;-68
2021/12/06 03:37:07;;;;;;;46.00;20.15;;;2.90;99.90;;;;;;5061866;28;20140;-69
2021/12/06 03:39:39;;;;;;;39.13;18.02;;;2.90;99.90;;;;;;5061840;28;20455;-69
2021/12/06 03:42:08;;;;;;;43.00;18.83;;;2.90;99.90;;;;;;5045966;28;20041;-69
2021/12/06 03:44:34;;;;;;;41.83;16.88;;;2.80;99.90;;;;;;5061126;28;20060;-69
2021/12/06 03:47:11;;;;;;;45.03;17.98;;;2.80;99.90;;;;;;5045973;28;20116;-69
2021/12/06 03:49:37;;;;;;;43.63;18.25;;;2.80;99.90;;;;;;5060893;28;20076;-68
2021/12/06 03:52:04;;;;;;;48.97;18.85;;;2.80;99.90;;;;;;5095455;28;20040;-69
2021/12/06 03:54:30;;;;;;;43.50;17.27;;;2.80;99.90;;;;;;5045489;28;20095;-69
2021/12/06 03:56:56;;;;;;;44.08;18.40;;;2.80;99.90;;;;;;5028189;28;20048;-68
2021/12/06 03:59:22;;;;;;;46.60;20.42;;;2.80;99.90;;;;;;5061633;28;20072;-69
2021/12/06 04:01:48;;;;;;;44.85;18.83;;;2.80;99.90;;;;;;5058384;28;20056;-69
2021/12/06 04:04:14;;;;;;;44.22;18.00;;;2.80;99.90;;;;;;5061474;28;20462;-69
2021/12/06 04:06:41;;;;;;;48.85;19.15;;;2.80;99.90;;;;;;5059332;28;20080;-69
2021/12/06 04:09:07;;;;;;;46.25;19.38;;;2.90;99.90;;;;;;5061139;28;20555;-68
2021/12/06 04:11:34;;;;;;;45.03;17.52;;;2.80;99.90;;;;;;5060381;28;20073;-69
2021/12/06 04:14:01;;;;;;;54.40;21.15;;;2.80;99.90;;;;;;5059825;28;20047;-69
2021/12/06 04:16:27;;;;;;;52.10;19.75;;;2.90;99.90;;;;;;5044841;28;20071;-69
2021/12/06 04:18:53;;;;;;;49.28;19.80;;;2.90;99.90;;;;;;5058731;28;20532;-69
2021/12/06 04:21:20;;;;;;;54.90;19.23;;;2.80;99.90;;;;;;5043739;28;20135;-69
2021/12/06 04:23:46;;;;;;;47.50;19.23;;;2.80;99.90;;;;;;5058458;28;20049;-69
2021/12/06 04:26:12;;;;;;;52.92;20.10;;;2.70;99.90;;;;;;5061226;28;20106;-69
2021/12/06 04:28:43;;;;;;;51.72;20.83;;;2.70;99.90;;;;;;5043679;28;20464;-69
2021/12/06 04:31:09;;;;;;;54.60;21.88;;;2.70;99.90;;;;;;5059133;28;20071;-69
2021/12/06 04:33:35;;;;;;;53.58;19.77;;;2.80;99.90;;;;;;5060875;28;20448;-69
2021/12/06 04:36:02;;;;;;;51.97;20.90;;;2.70;99.90;;;;;;5041912;28;20094;-69
2021/12/06 04:38:28;;;;;;;50.35;19.67;;;2.70;99.90;;;;;;5060189;28;20057;-69
2021/12/06 04:40:53;;;;;;;48.50;20.15;;;2.70;99.90;;;;;;5058188;28;20049;-69
2021/12/06 04:43:19;;;;;;;44.35;18.55;;;2.70;99.90;;;;;;5044235;28;20434;-69
2021/12/06 04:45:45;;;;;;;55.10;19.67;;;2.80;99.90;;;;;;5059470;28;20037;-69
2021/12/06 04:48:10;;;;;;;49.50;21.83;;;2.70;99.90;;;;;;5043062;28;20448;-69
2021/12/06 04:50:39;;;;;;;44.22;18.00;;;2.90;99.90;;;;;;5059891;28;20075;-69
2021/12/06 04:53:12;;;;;;;44.20;18.85;;;2.80;99.90;;;;;;5075048;28;20070;-69
2021/12/06 04:55:44;;;;;;;50.75;21.00;;;2.80;99.90;;;;;;5060247;28;20061;-69
2021/12/06 04:58:14;;;;;;;47.53;20.05;;;2.80;99.90;;;;;;5058295;28;20685;-69
2021/12/06 05:01:10;;;;;;;42.22;17.73;;;2.80;99.90;;;;;;5060047;28;20081;-69
2021/12/06 05:03:38;;;;;;;44.35;20.85;;;2.80;99.90;;;;;;5043855;28;20060;-69
2021/12/06 05:06:11;;;;;;;48.17;19.60;;;2.80;99.90;;;;;;5058229;28;20072;-69
2021/12/06 05:08:42;;;;;;;47.63;19.15;;;2.90;99.90;;;;;;5060195;28;20045;-69
2021/12/06 05:11:09;;;;;;;37.10;18.20;;;2.80;99.90;;;;;;5041635;28;20056;-69
2021/12/06 05:13:37;;;;;;;46.55;17.90;;;2.80;99.90;;;;;;5059735;28;20051;-69
2021/12/06 05:16:03;;;;;;;44.65;18.95;;;2.80;99.90;;;;;;5042524;28;20052;-69
2021/12/06 05:18:28;;;;;;;41.17;16.90;;;2.80;99.90;;;;;;5057996;28;20049;-69
2021/12/06 05:20:54;;;;;;;43.55;17.25;;;2.80;99.90;;;;;;5043097;28;20039;-69
2021/12/06 05:23:20;;;;;;;40.38;18.02;;;2.80;99.90;;;;;;5057693;28;20040;-69
2021/12/06 05:25:48;;;;;;;43.33;17.92;;;2.80;99.90;;;;;;5043547;28;20048;-69
2021/12/06 05:28:16;;;;;;;40.65;16.20;;;2.70;99.90;;;;;;5057968;28;20116;-69
2021/12/06 05:30:44;;;;;;;42.20;17.45;;;2.90;99.90;;;;;;5076731;28;20047;-69
2021/12/06 05:33:17;;;;;;;43.38;17.98;;;2.70;99.90;;;;;;5042681;28;20049;-69
2021/12/06 05:35:44;;;;;;;51.75;18.67;;;2.70;99.90;;;;;;5075698;28;20041;-69
2021/12/06 05:38:12;;;;;;;48.72;19.08;;;2.70;99.90;;;;;;5059899;28;20045;-69
2021/12/06 05:40:37;;;;;;;45.80;17.98;;;2.60;99.90;;;;;;5041022;28;20049;-69
2021/12/06 05:43:04;;;;;;;44.88;19.25;;;2.70;99.90;;;;;;5056326;28;20065;-69
2021/12/06 05:45:32;;;;;;;44.00;18.23;;;2.60;99.90;;;;;;5054591;28;20045;-69
2021/12/06 05:47:58;;;;;;;44.58;17.42;;;2.70;99.90;;;;;;5056144;28;20185;-69
2021/12/06 05:50:27;;;;;;;44.35;17.13;;;2.70;99.90;;;;;;5055644;28;20053;-69
2021/12/06 05:52:54;;;;;;;44.03;17.75;;;2.70;99.90;;;;;;5054194;28;20049;-69
2021/12/06 05:55:21;;;;;;;47.95;18.58;;;2.80;99.90;;;;;;5039268;28;20046;-69
2021/12/06 05:57:47;;;;;;;44.17;18.95;;;2.80;99.90;;;;;;5037451;28;20235;-69
2021/12/06 06:00:18;;;;;;;41.90;17.98;;;2.70;99.90;;;;;;5039340;28;20061;-69
2021/12/06 06:02:44;;;;;;;41.65;17.08;;;2.70;99.90;;;;;;5037990;28;20053;-69
2021/12/06 06:05:10;;;;;;;45.40;19.08;;;2.70;99.90;;;;;;5038991;28;20398;-69
2021/12/06 06:07:36;;;;;;;40.35;16.88;;;2.80;99.90;;;;;;5039347;28;20049;-69
2021/12/06 06:10:04;;;;;;;40.75;17.42;;;2.80;99.90;;;;;;5021283;28;20049;-69
2021/12/06 06:12:29;;;;;;;48.30;18.85;;;2.80;99.90;;;;;;5006834;28;20046;-69
2021/12/06 06:14:55;;;;;;;41.15;16.42;;;2.80;99.90;;;;;;5020915;28;20052;-69
2021/12/06 06:17:21;;;;;;;44.10;19.10;;;2.70;99.90;;;;;;5006438;28;20068;-69
2021/12/06 06:19:51;;;;;;;37.90;15.35;;;2.70;99.90;;;;;;5054428;28;20560;-69
2021/12/06 06:22:17;;;;;;;45.20;16.40;;;2.80;99.90;;;;;;5071758;28;20104;-69
2021/12/06 06:24:43;;;;;;;43.72;16.98;;;2.70;99.90;;;;;;5038845;28;20059;-69
2021/12/06 06:27:09;;;;;;;39.92;15.85;;;2.70;99.90;;;;;;5037441;28;20080;-69
2021/12/06 06:29:35;;;;;;;40.20;16.63;;;2.90;99.90;;;;;;5022834;28;20079;-69
2021/12/06 06:32:02;;;;;;;44.65;16.42;;;2.90;99.90;;;;;;5036655;28;20053;-69
2021/12/06 06:34:27;;;;;;;43.88;18.98;;;2.70;99.90;;;;;;5022493;28;20045;-69
2021/12/06 06:36:54;;;;;;;40.05;16.27;;;2.70;99.90;;;;;;5070847;28;20064;-69
2021/12/06 06:39:21;;;;;;;39.55;15.43;;;3.30;99.90;;;;;;5038591;28;20049;-69
2021/12/06 06:41:48;;;;;;;32.85;14.32;;;2.70;99.90;;;;;;5055779;28;20050;-69
2021/12/06 06:44:15;;;;;;;39.63;15.93;;;2.60;99.90;;;;;;5037463;28;20677;-69
2021/12/06 06:46:42;;;;;;;43.15;17.45;;;2.60;99.90;;;;;;5075191;28;20071;-69
2021/12/06 06:49:09;;;;;;;45.42;16.33;;;2.60;99.90;;;;;;5057115;28;20125;-71
2021/12/06 06:51:36;;;;;;;42.38;17.80;;;2.60;99.90;;;;;;5075537;28;20052;-69
2021/12/06 06:54:02;;;;;;;43.70;17.08;;;2.60;99.90;;;;;;5040925;28;20053;-67
2021/12/06 06:56:28;;;;;;;37.50;16.02;;;2.60;99.90;;;;;;5042478;28;20136;-68
2021/12/06 06:58:54;;;;;;;47.67;17.67;;;2.70;99.90;;;;;;5043368;28;20089;-67
2021/12/06 07:01:20;;;;;;;43.33;17.15;;;2.50;99.90;;;;;;5057149;28;20528;-68
2021/12/06 07:03:50;;;;;;;42.10;17.50;;;2.50;99.90;;;;;;5042742;28;20119;-69
2021/12/06 07:06:16;;;;;;;35.60;15.52;;;2.60;99.90;;;;;;5040391;28;20490;-69
2021/12/06 07:08:43;;;;;;;41.30;17.30;;;2.60;99.90;;;;;;5009625;28;20406;-68
2021/12/06 07:11:09;;;;;;;38.55;17.10;;;2.60;99.90;;;;;;5041141;28;20053;-68
2021/12/06 07:13:38;;;;;;;37.72;16.30;;;2.80;99.90;;;;;;5042333;28;20049;-69
2021/12/06 07:16:06;;;;;;;41.70;16.55;;;2.60;99.90;;;;;;5041857;28;20045;-69
2021/12/06 07:18:32;;;;;;;39.03;14.52;;;2.60;99.90;;;;;;5007640;28;20048;-69
2021/12/06 07:20:58;;;;;;;37.47;16.13;;;2.60;99.90;;;;;;5058558;28;20055;-69
2021/12/06 07:23:24;;;;;;;37.95;16.02;;;3.80;99.90;;;;;;5023693;28;20097;-69
2021/12/06 07:25:49;;;;;;;42.65;16.05;;;2.50;99.90;;;;;;5025793;28;20041;-69
2021/12/06 07:28:15;;;;;;;35.22;16.83;;;2.50;99.90;;;;;;5040101;28;20049;-69
2021/12/06 07:30:41;;;;;;;37.00;15.18;;;2.70;99.90;;;;;;5025300;28;20212;-69
2021/12/06 07:33:07;;;;;;;40.30;15.95;;;2.60;99.90;;;;;;5058193;28;20421;-68
2021/12/06 07:35:33;;;;;;;36.30;15.60;;;2.50;99.90;;;;;;5040450;28;20046;-68
2021/12/06 07:38:00;;;;;;;41.25;17.20;;;2.50;99.90;;;;;;5041618;28;20034;-68
2021/12/06 07:40:26;;;;;;;43.10;17.33;;;2.50;99.90;;;;;;5041142;28;20041;-68
2021/12/06 07:42:53;;;;;;;42.83;17.92;;;2.50;99.90;;;;;;5058394;28;20049;-68
2021/12/06 07:45:19;;;;;;;39.25;16.40;;;2.60;99.90;;;;;;5023316;28;20077;-68
2021/12/06 07:47:46;;;;;;;38.05;16.13;;;2.40;99.90;;;;;;5074791;28;20072;-68
2021/12/06 07:50:15;;;;;;;37.35;15.65;;;2.50;99.90;;;;;;5042224;28;20045;-68
2021/12/06 07:52:42;;;;;;;33.33;14.85;;;2.50;99.90;;;;;;5039717;28;20108;-68
2021/12/06 07:55:11;;;;;;;39.08;15.15;;;2.40;99.90;;;;;;5042983;28;20065;-68
2021/12/06 07:57:38;;;;;;;34.13;14.02;;;2.40;99.90;;;;;;5072588;28;20078;-68
2021/12/06 08:00:11;;;;;;;35.25;15.95;;;2.40;99.90;;;;;;5041264;28;20057;-68
2021/12/06 08:02:37;;;;;;;39.30;14.82;;;2.30;99.90;;;;;;5039581;28;20087;-68
2021/12/06 08:07:49;;;;;;;37.92;15.20;;;2.30;99.90;;;;;;5041669;28;20079;-68
2021/12/06 08:10:14;;;;;;;36.25;13.85;;;2.30;99.90;;;;;;5055667;28;20033;-68
2021/12/06 08:12:40;;;;;;;38.88;16.08;;;2.30;99.90;;;;;;5041508;28;20033;-68
2021/12/06 08:15:07;;;;;;;39.03;16.05;;;2.30;99.90;;;;;;5055992;28;20116;-68
2021/12/06 08:17:33;;;;;;;36.88;15.85;;;2.30;99.90;;;;;;5057886;28;20053;-68
2021/12/06 08:19:59;;;;;;;32.70;13.32;;;2.30;99.90;;;;;;5073385;28;20493;-68
2021/12/06 08:22:24;;;;;;;34.28;14.70;;;2.40;99.90;;;;;;5034526;28;20533;-68
2021/12/06 08:24:50;;;;;;;34.72;14.73;;;2.30;99.90;;;;;;5073063;28;20091;-68
2021/12/06 08:27:16;;;;;;;37.17;14.82;;;2.30;99.90;;;;;;5036985;28;20469;-67
2021/12/06 08:29:43;;;;;;;35.25;14.50;;;2.30;99.90;;;;;;5040264;28;20405;-67
2021/12/06 08:32:10;;;;;;;35.40;16.13;;;2.30;99.90;;;;;;5055031;28;20503;-68
2021/12/06 08:34:36;;;;;;;32.15;13.88;;;2.30;99.90;;;;;;5057176;28;20053;-68
2021/12/06 08:37:02;;;;;;;39.35;14.75;;;2.40;99.90;;;;;;5039555;28;20088;-67
2021/12/06 08:39:28;;;;;;;37.00;13.65;;;2.40;99.90;;;;;;5039375;28;20049;-68
2021/12/06 08:41:54;;;;;;;34.55;15.05;;;2.40;99.90;;;;;;5024099;28;20146;-68
2021/12/06 08:44:19;;;;;;;35.28;14.13;;;2.40;99.90;;;;;;5038001;28;20097;-69
2021/12/06 08:46:46;;;;;;;36.60;15.52;;;2.40;99.90;;;;;;5040568;28;20041;-69
2021/12/06 08:49:12;;;;;;;34.35;14.25;;;2.30;99.90;;;;;;5022089;28;20606;-68
2021/12/06 08:51:49;;;;;;;35.33;14.48;;;2.40;99.90;;;;;;5039471;28;20673;-68
2021/12/06 08:54:18;;;;;;;40.45;15.95;;;2.30;99.90;;;;;;5056004;28;20073;-68
2021/12/06 08:56:46;;;;;;;38.67;14.45;;;2.30;99.90;;;;;;5040592;28;20505;-68
2021/12/06 08:59:13;;;;;;;40.92;15.18;;;2.30;99.90;;;;;;5041201;28;20544;-68
2021/12/06 09:01:40;;;;;;;37.75;15.73;;;2.30;99.90;;;;;;5021097;28;20041;-69
2021/12/06 09:04:11;;;;;;;43.92;19.08;;;2.30;99.90;;;;;;5039583;28;20045;-67
2021/12/06 09:06:38;;;;;;;39.83;16.73;;;2.30;99.90;;;;;;5037736;28;20053;-69
2021/12/06 09:09:08;;;;;;;39.60;16.10;;;2.50;99.90;;;;;;5072621;28;20049;-68
2021/12/06 09:11:38;;;;;;;38.60;14.73;;;2.30;99.90;;;;;;5039487;28;20056;-68
2021/12/06 09:14:04;;;;;;;38.00;16.55;;;2.30;99.90;;;;;;5039319;28;20072;-68
2021/12/06 09:16:30;;;;;;;42.95;16.13;;;2.40;99.90;;;;;;5039372;28;20041;-68
2021/12/06 09:18:58;;;;;;;42.45;17.50;;;2.40;99.90;;;;;;5037224;28;20052;-68
2021/12/06 09:21:24;;;;;;;43.28;17.35;;;2.40;99.90;;;;;;5054999;28;20053;-68
2021/12/06 09:23:51;;;;;;;41.35;17.20;;;2.70;99.90;;;;;;5038496;28;20067;-67
2021/12/06 09:26:17;;;;;;;41.47;15.40;;;2.40;99.90;;;;;;5039170;28;20045;-68
2021/12/06 09:28:44;;;;;;;43.20;18.00;;;2.40;99.90;;;;;;5038739;28;20132;-68
2021/12/06 09:31:11;;;;;;;48.58;18.77;;;2.30;99.90;;;;;;5037682;28;20049;-68
2021/12/06 09:33:38;;;;;;;58.70;21.25;;;2.30;99.90;;;;;;5072741;28;20124;-67
2021/12/06 09:36:05;;;;;;;49.67;19.52;;;2.30;99.90;;;;;;5070522;28;20108;-68
2021/12/06 09:38:36;;;;;;;55.35;21.65;;;2.30;99.90;;;;;;5056238;28;20045;-68
2021/12/06 09:41:05;;;;;;;58.10;23.25;;;2.30;99.90;;;;;;5038155;28;20634;-68
2021/12/06 09:43:37;;;;;;;59.15;22.92;;;2.30;99.90;;;;;;5037778;28;20516;-68
2021/12/06 09:46:03;;;;;;;52.47;21.67;;;2.50;99.90;;;;;;5039188;28;20049;-68
2021/12/06 09:48:29;;;;;;;53.70;19.98;;;2.40;99.90;;;;;;5070940;28;20148;-68
2021/12/06 09:50:59;;;;;;;48.38;20.13;;;2.60;99.90;;;;;;5039857;28;20122;-68
2021/12/06 09:53:28;;;;;;;46.10;19.42;;;2.40;99.90;;;;;;5053908;28;20075;-68
2021/12/06 09:55:58;;;;;;;52.15;20.40;;;2.40;99.90;;;;;;5022740;28;20052;-67
2021/12/06 09:58:24;;;;;;;45.20;18.83;;;2.40;99.90;;;;;;5021501;28;20116;-67
2021/12/06 10:00:54;;;;;;;39.20;16.23;;;2.40;99.90;;;;;;5023601;28;20592;-67
2021/12/06 10:03:24;;;;;;;39.30;16.73;;;2.40;99.90;;;;;;5058574;28;20064;-68
2021/12/06 10:05:52;;;;;;;40.60;16.63;;;2.40;99.90;;;;;;5056602;28;20060;-68
2021/12/06 10:08:18;;;;;;;35.45;16.38;;;2.40;99.90;;;;;;5058916;28;20366;-68
2021/12/06 10:10:44;;;;;;;29.83;14.32;;;2.50;99.90;;;;;;5073189;28;20059;-67
2021/12/06 10:13:10;;;;;;;28.73;14.45;;;2.50;99.90;;;;;;5058880;28;20060;-67
2021/12/06 10:15:36;;;;;;;29.70;13.30;;;2.80;99.90;;;;;;5058920;28;20048;-67
2021/12/06 10:18:03;;;;;;;30.80;13.93;;;2.50;99.90;;;;;;5091435;28;20056;-67
2021/12/06 10:20:31;;;;;;;30.67;12.73;;;2.60;99.90;;;;;;5060576;28;20051;-68
2021/12/06 10:22:57;;;;;;;29.02;12.15;;;3.10;99.90;;;;;;5062030;28;20052;-67
2021/12/06 10:25:37;;;;;;;30.95;14.95;;;3.10;99.90;;;;;;5096949;28;20045;-68
2021/12/06 10:28:04;;;;;;;30.63;13.35;;;2.60;99.90;;;;;;5060970;28;20104;-68
2021/12/06 10:30:38;;;;;;;35.78;14.88;;;2.60;99.90;;;;;;5063420;28;20055;-68
2021/12/06 10:33:08;;;;;;;31.70;14.80;;;2.80;99.90;;;;;;5044165;28;20045;-68
2021/12/06 10:35:38;;;;;;;30.38;13.90;;;2.60;99.90;;;;;;5024523;28;20053;-68
2021/12/06 10:38:03;;;;;;;26.02;12.52;;;2.60;99.90;;;;;;5043265;28;20041;-68
2021/12/06 10:40:36;;;;;;;29.20;12.30;;;2.70;99.90;;;;;;5073977;28;20527;-68
2021/12/06 10:43:05;;;;;;;28.90;12.82;;;2.50;99.90;;;;;;5043114;28;20129;-68
2021/12/06 10:45:48;;;;;;;26.98;12.68;;;2.80;99.90;;;;;;5024930;28;20045;-68
2021/12/06 10:48:21;;;;;;;30.67;13.57;;;2.60;99.90;;;;;;5041255;28;20057;-68
2021/12/06 10:50:52;;;;;;;26.35;11.85;;;2.70;99.90;;;;;;5042110;28;20046;-68
2021/12/06 10:53:24;;;;;;;24.50;10.63;;;2.90;99.90;;;;;;5024250;28;20042;-68
2021/12/06 10:55:54;;;;;;;25.10;12.02;;;2.90;99.90;;;;;;5059058;28;20124;-68
2021/12/06 10:58:24;;;;;;;26.45;11.23;;;2.70;99.90;;;;;;5074383;28;20046;-68
2021/12/06 11:01:12;;;;;;;28.33;11.70;;;2.70;99.90;;;;;;5074245;28;20053;-68
2021/12/06 11:03:47;;;;;;;26.77;11.52;;;2.80;99.90;;;;;;5033296;28;20084;-68
2021/12/06 11:06:20;;;;;;;24.90;11.45;;;2.80;99.90;;;;;;5041595;28;20101;-68
2021/12/06 11:08:57;;;;;;;26.60;11.30;;;2.80;99.90;;;;;;5043906;28;20052;-67
2021/12/06 11:11:27;;;;;;;23.75;11.32;;;2.80;99.90;;;;;;5074631;28;20060;-67
2021/12/06 11:14:08;;;;;;;26.15;11.82;;;2.80;99.90;;;;;;5042192;28;20049;-68
2021/12/06 11:16:40;;;;;;;29.05;12.63;;;2.80;99.90;;;;;;5042293;28;20429;-67
2021/12/06 11:19:15;;;;;;;28.55;12.95;;;3.00;99.90;;;;;;5041365;28;20580;-67
2021/12/06 11:21:57;;;;;;;33.28;13.68;;;2.80;99.90;;;;;;5074800;28;20053;-68
2021/12/06 11:24:26;;;;;;;29.33;13.02;;;2.80;99.90;;;;;;5043014;28;20046;-67
2021/12/06 11:27:03;;;;;;;32.58;13.25;;;2.90;99.90;;;;;;5040597;28;20595;-68
2021/12/06 11:29:39;;;;;;;29.52;12.73;;;3.00;99.90;;;;;;5075438;28;20666;-68
2021/12/06 11:32:07;;;;;;;32.20;14.20;;;3.00;99.90;;;;;;5040232;28;20053;-68
2021/12/06 11:34:43;;;;;;;33.63;13.48;;;3.10;99.90;;;;;;5042801;28;20049;-68
2021/12/06 11:37:27;;;;;;;32.80;14.63;;;3.10;99.90;;;;;;5040721;28;20045;-68
2021/12/06 11:39:59;;;;;;;35.33;16.70;;;3.10;99.90;;;;;;5072674;28;20053;-67
2021/12/06 11:42:25;;;;;;;36.58;16.40;;;3.10;99.90;;;;;;5042013;28;20057;-68
2021/12/06 11:44:51;;;;;;;29.48;11.95;;;3.10;99.90;;;;;;5022740;28;20120;-68
2021/12/06 11:47:19;;;;;;;28.17;13.15;;;3.10;99.90;;;;;;5058414;28;20050;-68
2021/12/06 11:49:54;;;;;;;27.88;12.90;;;3.10;99.90;;;;;;5041400;28;20041;-67
2021/12/06 11:52:29;;;;;;;31.33;12.77;;;3.00;99.90;;;;;;5041587;28;20042;-67
2021/12/06 11:55:00;;;;;;;26.43;11.40;;;3.00;99.90;;;;;;5041900;28;20049;-67
2021/12/06 11:57:36;;;;;;;27.15;11.40;;;3.10;99.90;;;;;;5056387;28;20338;-68
2021/12/06 12:00:02;;;;;;;25.48;10.88;;;3.20;99.90;;;;;;5042453;28;20522;-68
2021/12/06 12:02:36;;;;;;;25.40;10.02;;;3.20;99.90;;;;;;5039396;28;20079;-68
2021/12/06 12:05:17;;;;;;;23.33;10.23;;;3.20;99.90;;;;;;5040772;28;20172;-68
2021/12/06 12:08:03;;;;;;;28.35;11.63;;;3.40;99.90;;;;;;5042647;28;20047;-68
2021/12/06 12:10:30;;;;;;;19.40;10.17;;;3.40;99.90;;;;;;5038295;28;20053;-67
2021/12/06 12:12:56;;;;;;;28.00;13.27;;;3.40;99.90;;;;;;5040880;28;20108;-67
2021/12/06 12:15:22;;;;;;;22.80;10.27;;;3.70;99.90;;;;;;5040664;28;20064;-67
2021/12/06 12:17:50;;;;;;;25.17;11.00;;;3.40;99.90;;;;;;5073753;28;20056;-68
2021/12/06 12:20:17;;;;;;;28.35;11.05;;;3.40;99.90;;;;;;5041473;28;20057;-68
2021/12/06 12:22:49;;;;;;;24.45;10.68;;;3.50;99.90;;;;;;5055374;28;20440;-68
2021/12/06 12:25:22;;;;;;;24.27;11.27;;;3.60;99.90;;;;;;5041061;28;20049;-68
2021/12/06 12:30:21;;;;;;;24.30;12.30;;;3.50;99.90;;;;;;5041646;28;20050;-68
2021/12/06 12:32:47;;;;;;;28.33;12.60;;;3.40;99.90;;;;;;5040975;28;20088;-67
2021/12/06 12:35:15;;;;;;;28.15;11.50;;;3.40;99.90;;;;;;5023307;28;20041;-68
2021/12/06 12:37:42;;;;;;;32.03;12.77;;;3.40;99.90;;;;;;5041959;28;20054;-68
2021/12/06 12:40:19;;;;;;;31.17;14.73;;;3.40;99.90;;;;;;5038178;28;20531;-68
2021/12/06 12:43:04;;;;;;;32.42;13.98;;;3.40;99.90;;;;;;5056656;28;20054;-67
2021/12/06 12:45:43;;;;;;;32.20;13.52;;;3.50;99.90;;;;;;5069766;28;20112;-68
2021/12/06 12:48:11;;;;;;;35.35;14.45;;;3.40;99.90;;;;;;5033051;28;20497;-68
2021/12/06 12:50:37;;;;;;;32.03;13.18;;;3.40;99.90;;;;;;5039920;28;20053;-68
2021/12/06 12:53:14;;;;;;;31.52;14.35;;;3.50;99.90;;;;;;5038729;28;20042;-68
2021/12/06 12:55:48;;;;;;;35.85;15.27;;;3.50;99.90;;;;;;5023791;28;20517;-68
2021/12/06 12:58:25;;;;;;;36.10;14.70;;;3.50;99.90;;;;;;5071943;28;20055;-67
2021/12/06 13:01:07;;;;;;;34.53;14.23;;;3.50;99.90;;;;;;5071513;28;20140;-68
2021/12/06 13:03:40;;;;;;;32.10;13.57;;;3.50;99.90;;;;;;5041586;28;20049;-67